createdAt,value
2018-08-20T00:01:05.799Z,97141.41
2018-08-20T00:02:41.727Z,97142.93
2018-08-20T00:04:17.625Z,97146.57
2018-08-20T00:05:55.844Z,97143.45
2018-08-20T00:07:32.338Z,97140.97
2018-08-20T00:09:07.692Z,97137.72
2018-08-20T00:10:44.697Z,97141.67
2018-08-20T00:12:21.586Z,97139.66
2018-08-20T00:13:58.283Z,97143.44
2018-08-20T00:15:34.008Z,97140.95
2018-08-20T00:17:10.038Z,97143.66
2018-08-20T00:18:47.707Z,97137.77
2018-08-20T00:20:23.927Z,97137.15
2018-08-20T00:21:59.241Z,97139.55
2018-08-20T00:23:36.578Z,97135.53
2018-08-20T00:25:14.320Z,97138.23
2018-08-20T00:26:49.386Z,97137.53
2018-08-20T00:28:27.318Z,97142.94
2018-08-20T00:30:05.790Z,97140.55
2018-08-20T00:31:42.051Z,97132.69
2018-08-20T00:33:18.571Z,97139.12
2018-08-20T00:34:54.255Z,97140.79
2018-08-20T00:36:30.308Z,97136.28
2018-08-20T00:38:06.281Z,97138.44
2018-08-20T00:39:42.366Z,97137.33
2018-08-20T00:41:17.792Z,97137.71
2018-08-20T00:42:53.211Z,97137.22
2018-08-20T00:44:28.838Z,97144.01
2018-08-20T00:46:04.841Z,97138.26
2018-08-20T00:47:39.950Z,97144.97
2018-08-20T00:49:17.010Z,97142.69
2018-08-20T00:50:52.122Z,97134.16
2018-08-20T00:52:27.863Z,97136.80
2018-08-20T00:54:04.681Z,97128.25
2018-08-20T00:55:40.234Z,97132.78
2018-08-20T00:57:16.498Z,97124.98
2018-08-20T00:58:51.800Z,97131.02
2018-08-20T01:00:27.606Z,97130.18
2018-08-20T01:02:03.543Z,97128.17
2018-08-20T01:03:38.978Z,97134.41
2018-08-20T01:05:15.350Z,97133.58
2018-08-20T01:06:50.524Z,97130.80
2018-08-20T01:08:27.284Z,97126.52
2018-08-20T01:10:02.707Z,97131.22
2018-08-20T01:11:38.548Z,97124.70
2018-08-20T01:13:13.965Z,97130.73
2018-08-20T01:14:49.940Z,97129.62
2018-08-20T01:16:26.847Z,97129.72
2018-08-20T01:18:03.026Z,97123.70
2018-08-20T01:19:39.809Z,97125.35
2018-08-20T01:21:16.803Z,97126.11
2018-08-20T01:22:53.828Z,97125.84
2018-08-20T01:24:28.881Z,97118.64
2018-08-20T01:26:04.009Z,97118.42
2018-08-20T01:27:39.583Z,97119.95
2018-08-20T01:29:14.852Z,97121.47
2018-08-20T01:30:50.431Z,97116.96
2018-08-20T01:32:26.125Z,97110.17
2018-08-20T01:34:01.760Z,97109.90
2018-08-20T01:35:37.258Z,97109.68
2018-08-20T01:37:12.540Z,97110.80
2018-08-20T01:38:48.258Z,97112.94
2018-08-20T01:40:23.533Z,97111.06
2018-08-20T01:41:58.939Z,97103.38
2018-08-20T01:43:34.387Z,97105.66
2018-08-20T01:45:10.010Z,97105.39
2018-08-20T01:46:45.412Z,97103.24
2018-08-20T01:48:20.835Z,97103.11
2018-08-20T01:49:56.002Z,97106.39
2018-08-20T01:51:31.403Z,97104.90
2018-08-20T01:53:07.966Z,97102.37
2018-08-20T01:54:43.306Z,97101.88
2018-08-20T01:56:18.594Z,97097.99
2018-08-20T01:57:53.980Z,97097.72
2018-08-20T01:59:29.437Z,97092.05
2018-08-20T02:01:05.189Z,97094.33
2018-08-20T02:02:40.612Z,97091.80
2018-08-20T02:04:15.988Z,97098.48
2018-08-20T02:05:51.444Z,97089.41
2018-08-20T02:07:26.764Z,97094.11
2018-08-20T02:09:02.299Z,97086.91
2018-08-20T02:10:37.786Z,97094.68
2018-08-20T02:12:13.451Z,97090.80
2018-08-20T02:13:48.714Z,97086.50
2018-08-20T02:15:24.305Z,97094.33
2018-08-20T02:17:00.033Z,97085.25
2018-08-20T02:18:35.944Z,97087.65
2018-08-20T02:20:11.452Z,97088.77
2018-08-20T02:21:46.627Z,97080.20
2018-08-20T02:23:22.034Z,97074.52
2018-08-20T02:24:57.785Z,97080.94
2018-08-20T02:26:33.104Z,97078.38
2018-08-20T02:28:08.273Z,97078.79
2018-08-20T02:29:43.531Z,97078.79
2018-08-20T02:31:18.982Z,97076.43
2018-08-20T02:32:54.601Z,97077.89
2018-08-20T02:34:29.862Z,97071.45
2018-08-20T02:36:05.119Z,97070.20
2018-08-20T02:37:48.379Z,97070.42
2018-08-20T02:39:23.842Z,97073.47
2018-08-20T02:40:59.361Z,97071.19
2018-08-20T02:42:34.978Z,97068.55
2018-08-20T02:44:11.270Z,97071.05
2018-08-20T02:45:46.672Z,97070.30
2018-08-20T02:47:21.916Z,97065.16
2018-08-20T02:48:57.581Z,97070.83
2018-08-20T02:50:33.060Z,97066.00
2018-08-20T02:52:08.288Z,97064.67
2018-08-20T02:53:43.446Z,97059.34
2018-08-20T02:55:18.772Z,97059.20
2018-08-20T02:56:54.773Z,97059.97
2018-08-20T02:58:30.266Z,97058.07
2018-08-20T03:00:15.742Z,97053.42
2018-08-20T03:01:51.129Z,97055.44
2018-08-20T03:03:27.210Z,97056.06
2018-08-20T03:05:02.860Z,97052.13
2018-08-20T03:06:39.330Z,97044.35
2018-08-20T03:08:15.372Z,97045.20
2018-08-20T03:09:50.762Z,97053.64
2018-08-20T03:11:26.182Z,97048.73
2018-08-20T03:13:01.438Z,97047.48
2018-08-20T03:14:36.402Z,97050.11
2018-08-20T03:16:12.527Z,97046.17
2018-08-20T03:17:48.470Z,97051.98
2018-08-20T03:19:23.750Z,97049.30
2018-08-20T03:20:58.856Z,97046.80
2018-08-20T03:22:34.059Z,97050.31
2018-08-20T03:24:09.540Z,97049.78
2018-08-20T03:25:45.050Z,97054.33
2018-08-20T03:27:20.418Z,97051.17
2018-08-20T03:28:55.922Z,97049.78
2018-08-20T03:30:31.195Z,97055.09
2018-08-20T03:32:06.595Z,97050.66
2018-08-20T03:33:44.801Z,97056.96
2018-08-20T03:35:21.126Z,97054.95
2018-08-20T03:36:57.083Z,97058.83
2018-08-20T03:38:32.942Z,97056.96
2018-08-20T03:40:10.215Z,97053.78
2018-08-20T03:41:45.205Z,97053.51
2018-08-20T03:43:20.605Z,97052.48
2018-08-20T03:44:55.931Z,97055.48
2018-08-20T03:46:31.119Z,97051.58
2018-08-20T03:48:07.851Z,97059.32
2018-08-20T03:49:43.212Z,97051.58
2018-08-20T03:51:18.319Z,97053.97
2018-08-20T03:52:53.486Z,97056.05
2018-08-20T03:54:29.315Z,97059.63
2018-08-20T03:56:04.606Z,97052.66
2018-08-20T03:57:40.548Z,97062.08
2018-08-20T03:59:30.164Z,97062.84
2018-08-20T04:01:05.546Z,97070.08
2018-08-20T04:02:40.787Z,97073.61
2018-08-20T04:04:17.831Z,97077.00
2018-08-20T04:05:53.203Z,97077.00
2018-08-20T04:07:28.391Z,97078.98
2018-08-20T04:09:03.800Z,97084.94
2018-08-20T04:10:39.255Z,97080.92
2018-08-20T04:12:15.802Z,97079.54
2018-08-20T04:13:51.180Z,97075.38
2018-08-20T04:15:26.532Z,97083.97
2018-08-20T04:17:02.088Z,97078.64
2018-08-20T04:18:38.029Z,97084.31
2018-08-20T04:20:13.371Z,97092.14
2018-08-20T04:21:48.895Z,97084.55
2018-08-20T04:23:24.091Z,97091.41
2018-08-20T04:24:59.486Z,97086.14
2018-08-20T04:26:35.142Z,97086.91
2018-08-20T04:28:11.450Z,97084.90
2018-08-20T04:29:47.389Z,97078.25
2018-08-20T04:31:22.661Z,97079.30
2018-08-20T04:32:58.945Z,97085.31
2018-08-20T04:34:34.601Z,97084.03
2018-08-20T04:36:09.892Z,97081.27
2018-08-20T04:37:45.454Z,97084.17
2018-08-20T04:39:21.090Z,97080.50
2018-08-20T04:40:57.148Z,97077.95
2018-08-20T04:42:33.023Z,97082.44
2018-08-20T04:44:09.090Z,97084.17
2018-08-20T04:45:44.307Z,97089.70
2018-08-20T04:47:19.555Z,97090.35
2018-08-20T04:48:55.224Z,97091.36
2018-08-20T04:50:32.291Z,97094.13
2018-08-20T04:52:09.219Z,97098.42
2018-08-20T04:53:45.055Z,97097.31
2018-08-20T04:55:20.759Z,97097.04
2018-08-20T04:56:57.141Z,97096.76
2018-08-20T04:58:33.549Z,97100.70
2018-08-20T05:00:12.680Z,97101.28
2018-08-20T05:01:48.294Z,97097.37
2018-08-20T05:03:24.100Z,97100.56
2018-08-20T05:05:00.004Z,97105.16
2018-08-20T05:06:35.123Z,97108.12
2018-08-20T05:08:10.505Z,97104.66
2018-08-20T05:09:46.064Z,97108.70
2018-08-20T05:11:21.451Z,97105.94
2018-08-20T05:12:57.007Z,97109.33
2018-08-20T05:14:32.438Z,97113.58
2018-08-20T05:16:07.790Z,97107.42
2018-08-20T05:17:44.547Z,97106.14
2018-08-20T05:19:20.716Z,97111.72
2018-08-20T05:20:56.346Z,97114.86
2018-08-20T05:22:31.687Z,97115.39
2018-08-20T05:24:07.257Z,97110.83
2018-08-20T05:25:42.557Z,97109.63
2018-08-20T05:27:18.946Z,97113.16
2018-08-20T05:28:55.528Z,97114.55
2018-08-20T05:30:30.879Z,97117.87
2018-08-20T05:32:06.214Z,97119.67
2018-08-20T05:33:41.803Z,97117.81
2018-08-20T05:35:17.369Z,97120.30
2018-08-20T05:36:52.463Z,97116.26
2018-08-20T05:38:28.202Z,97115.24
2018-08-20T05:40:03.877Z,97111.23
2018-08-20T05:41:40.318Z,97119.32
2018-08-20T05:43:15.820Z,97117.41
2018-08-20T05:44:51.364Z,97119.37
2018-08-20T05:46:28.243Z,97117.31
2018-08-20T05:48:05.916Z,97121.93
2018-08-20T05:49:42.575Z,97120.13
2018-08-20T05:51:20.816Z,97121.61
2018-08-20T05:52:58.639Z,97120.70
2018-08-20T05:54:34.219Z,97121.95
2018-08-20T05:56:11.472Z,97116.34
2018-08-20T05:57:49.068Z,97122.45
2018-08-20T05:59:26.589Z,97119.78
2018-08-20T06:01:03.528Z,97123.78
2018-08-20T06:02:40.874Z,97126.47
2018-08-20T06:04:16.986Z,97120.91
2018-08-20T06:05:54.625Z,97128.13
2018-08-20T06:07:31.563Z,97126.31
2018-08-20T06:09:09.520Z,97125.84
2018-08-20T06:10:45.144Z,97128.25
2018-08-20T06:12:21.587Z,97127.45
2018-08-20T06:13:56.799Z,97128.48
2018-08-20T06:15:32.443Z,97131.33
2018-08-20T06:17:07.876Z,97127.23
2018-08-20T06:18:44.446Z,97126.56
2018-08-20T06:20:20.976Z,97135.68
2018-08-20T06:22:00.173Z,97132.77
2018-08-20T06:23:36.587Z,97137.83
2018-08-20T06:25:13.135Z,97141.45
2018-08-20T06:26:51.601Z,97146.21
2018-08-20T06:28:29.390Z,97153.14
2018-08-20T06:30:08.846Z,97154.69
2018-08-20T06:31:44.510Z,97156.63
2018-08-20T06:33:20.531Z,97155.16
2018-08-20T06:34:56.237Z,97149.48
2018-08-20T06:36:32.746Z,97154.80
2018-08-20T06:38:08.899Z,97152.03
2018-08-20T06:39:45.190Z,97151.08
2018-08-20T06:41:21.283Z,97156.41
2018-08-20T06:42:57.594Z,97159.61
2018-08-20T06:44:35.406Z,97161.25
2018-08-20T06:46:11.530Z,97166.11
2018-08-20T06:47:49.334Z,97162.62
2018-08-20T06:49:25.670Z,97171.42
2018-08-20T06:51:01.526Z,97176.48
2018-08-20T06:52:37.368Z,97171.11
2018-08-20T06:54:13.389Z,97177.91
2018-08-20T06:55:49.448Z,97175.95
2018-08-20T06:57:26.288Z,97170.94
2018-08-20T06:59:02.933Z,97173.57
2018-08-20T07:00:40.829Z,97179.97
2018-08-20T07:02:18.180Z,97180.39
2018-08-20T07:03:54.021Z,97180.36
2018-08-20T07:05:30.619Z,97177.59
2018-08-20T07:07:06.837Z,97183.05
2018-08-20T07:08:44.034Z,97183.86
2018-08-20T07:10:19.636Z,97182.72
2018-08-20T07:11:58.139Z,97188.42
2018-08-20T07:13:36.417Z,97194.55
2018-08-20T07:15:16.768Z,97194.70
2018-08-20T07:16:53.577Z,97198.44
2018-08-20T07:18:30.547Z,97193.82
2018-08-20T07:20:09.775Z,97201.36
2018-08-20T07:21:45.240Z,97199.44
2018-08-20T07:23:21.927Z,97208.98
2018-08-20T07:24:59.363Z,97202.41
2018-08-20T07:26:35.423Z,97211.41
2018-08-20T07:28:12.045Z,97208.89
2018-08-20T07:29:48.340Z,97212.80
2018-08-20T07:31:25.483Z,97208.41
2018-08-20T07:33:02.301Z,97209.17
2018-08-20T07:34:38.828Z,97209.19
2018-08-20T07:36:14.760Z,97218.24
2018-08-20T07:37:50.537Z,97211.30
2018-08-20T07:39:27.929Z,97213.69
2018-08-20T07:41:03.953Z,97211.89
2018-08-20T07:42:39.950Z,97208.64
2018-08-20T07:44:16.712Z,97211.17
2018-08-20T07:45:52.909Z,97211.89
2018-08-20T07:47:28.581Z,97213.89
2018-08-20T07:49:10.261Z,97212.34
2018-08-20T07:50:46.025Z,97204.45
2018-08-20T07:52:24.036Z,97213.11
2018-08-20T07:54:01.816Z,97207.27
2018-08-20T07:55:37.921Z,97218.66
2018-08-20T07:57:14.262Z,97219.04
2018-08-20T07:58:52.358Z,97215.61
2018-08-20T08:00:29.269Z,97215.41
2018-08-20T08:02:06.615Z,97218.73
2018-08-20T08:03:42.588Z,97222.43
2018-08-20T08:05:19.386Z,97223.72
2018-08-20T08:06:56.122Z,97218.52
2018-08-20T08:08:33.068Z,97223.30
2018-08-20T08:10:12.320Z,97223.16
2018-08-20T08:11:48.537Z,97221.32
2018-08-20T08:13:24.834Z,97225.20
2018-08-20T08:15:02.693Z,97228.04
2018-08-20T08:16:39.041Z,97223.42
2018-08-20T08:18:14.246Z,97227.37
2018-08-20T08:19:54.707Z,97224.33
2018-08-20T08:21:33.775Z,97231.25
2018-08-20T08:23:11.943Z,97233.72
2018-08-20T08:24:49.062Z,97231.22
2018-08-20T08:26:27.478Z,97230.36
2018-08-20T08:28:03.408Z,97232.64
2018-08-20T08:29:39.231Z,97229.50
2018-08-20T08:31:17.760Z,97234.70
2018-08-20T08:32:54.332Z,97235.14
2018-08-20T08:34:31.786Z,97229.59
2018-08-20T08:36:10.533Z,97232.23
2018-08-20T08:37:46.894Z,97233.75
2018-08-20T08:39:23.841Z,97235.63
2018-08-20T08:40:59.772Z,97229.22
2018-08-20T08:42:35.564Z,97234.34
2018-08-20T08:44:13.623Z,97234.14
2018-08-20T08:45:49.835Z,97242.59
2018-08-20T08:47:26.224Z,97240.16
2018-08-20T08:49:02.469Z,97240.02
2018-08-20T08:50:38.300Z,97242.86
2018-08-20T08:52:14.582Z,97240.81
2018-08-20T08:53:50.507Z,97245.45
2018-08-20T08:55:26.951Z,97239.95
2018-08-20T08:57:03.487Z,97239.61
2018-08-20T08:58:39.200Z,97243.77
2018-08-20T09:00:19.709Z,97244.22
2018-08-20T09:01:56.042Z,97243.39
2018-08-20T09:03:34.967Z,97244.42
2018-08-20T09:05:12.926Z,97241.83
2018-08-20T09:06:49.339Z,97244.16
2018-08-20T09:08:25.759Z,97243.94
2018-08-20T09:10:02.174Z,97246.75
2018-08-20T09:11:38.572Z,97246.30
2018-08-20T09:13:19.185Z,97245.53
2018-08-20T09:14:58.399Z,97245.16
2018-08-20T09:16:40.762Z,97245.36
2018-08-20T09:18:19.645Z,97250.58
2018-08-20T09:22:13.056Z,97245.75
2018-08-20T09:23:50.400Z,97249.07
2018-08-20T09:25:26.703Z,97250.70
2018-08-20T09:27:03.311Z,97248.97
2018-08-20T09:28:39.469Z,97250.50
2018-08-20T09:30:22.674Z,97248.86
2018-08-20T09:31:59.440Z,97254.02
2018-08-20T09:33:35.101Z,97257.80
2018-08-20T09:35:11.318Z,97251.48
2018-08-20T09:36:48.253Z,97259.18
2018-08-20T09:38:24.414Z,97252.06
2018-08-20T09:40:01.265Z,97256.78
2018-08-20T09:41:38.704Z,97264.28
2018-08-20T09:43:15.293Z,97255.02
2018-08-20T09:44:51.797Z,97257.66
2018-08-20T09:46:27.504Z,97252.02
2018-08-20T09:48:03.107Z,97260.75
2018-08-20T09:49:39.620Z,97254.01
2018-08-20T09:51:15.905Z,97258.30
2018-08-20T09:52:52.000Z,97257.75
2018-08-20T09:54:28.737Z,97260.95
2018-08-20T09:56:06.055Z,97258.98
2018-08-20T09:57:42.395Z,97259.08
2018-08-20T09:59:18.832Z,97262.39
2018-08-20T10:00:55.542Z,97263.08
2018-08-20T10:02:32.595Z,97259.70
2018-08-20T10:04:08.431Z,97261.70
2018-08-20T10:05:44.697Z,97260.88
2018-08-20T10:07:20.675Z,97262.61
2018-08-20T10:08:57.467Z,97258.86
2018-08-20T10:10:37.216Z,97256.16
2018-08-20T10:12:12.503Z,97251.28
2018-08-20T10:13:48.666Z,97254.95
2018-08-20T10:15:26.727Z,97257.80
2018-08-20T10:17:05.285Z,97262.51
2018-08-20T10:18:44.199Z,97260.02
2018-08-20T10:20:20.672Z,97256.13
2018-08-20T10:21:57.555Z,97255.86
2018-08-20T10:23:33.280Z,97256.79
2018-08-20T10:25:09.099Z,97261.75
2018-08-20T10:26:46.120Z,97267.53
2018-08-20T10:28:21.992Z,97258.42
2018-08-20T10:29:58.150Z,97260.88
2018-08-20T10:31:36.000Z,97259.70
2018-08-20T10:33:18.031Z,97263.73
2018-08-20T10:34:55.798Z,97264.73
2018-08-20T10:36:32.306Z,97262.02
2018-08-20T10:38:12.076Z,97266.18
2018-08-20T10:39:48.247Z,97266.63
2018-08-20T10:41:23.803Z,97261.89
2018-08-20T10:43:10.882Z,97268.19
2018-08-20T10:44:54.863Z,97271.96
2018-08-20T10:46:32.511Z,97270.16
2018-08-20T10:48:11.816Z,97266.36
2018-08-20T10:49:49.981Z,97265.91
2018-08-20T10:51:28.256Z,97271.42
2018-08-20T10:53:05.534Z,97269.69
2018-08-20T10:54:41.142Z,97272.00
2018-08-20T10:56:18.495Z,97267.15
2018-08-20T10:57:55.343Z,97268.09
2018-08-20T10:59:39.798Z,97266.95
2018-08-20T11:01:18.083Z,97271.61
2018-08-20T11:02:55.085Z,97273.77
2018-08-20T11:04:41.216Z,97275.94
2018-08-20T11:06:20.462Z,97267.63
2018-08-20T11:07:58.612Z,97277.69
2018-08-20T11:09:38.957Z,97276.20
2018-08-20T11:11:18.766Z,97270.52
2018-08-20T11:12:57.801Z,97265.09
2018-08-20T11:14:34.996Z,97265.70
2018-08-20T11:16:13.033Z,97268.09
2018-08-20T11:17:50.102Z,97272.34
2018-08-20T11:19:26.878Z,97271.50
2018-08-20T11:21:03.267Z,97268.62
2018-08-20T11:22:45.044Z,97279.09
2018-08-20T11:24:20.981Z,97276.43
2018-08-20T11:25:57.245Z,97277.09
2018-08-20T11:27:33.911Z,97276.24
2018-08-20T11:29:12.817Z,97276.05
2018-08-20T11:30:48.520Z,97271.97
2018-08-20T11:32:26.548Z,97270.44
2018-08-20T11:34:03.241Z,97273.34
2018-08-20T11:35:39.127Z,97266.71
2018-08-20T11:37:16.807Z,97272.53
2018-08-20T11:38:55.516Z,97278.03
2018-08-20T11:40:31.824Z,97275.20
2018-08-20T11:42:09.001Z,97276.25
2018-08-20T11:43:49.250Z,97269.23
2018-08-20T11:45:27.388Z,97272.77
2018-08-20T11:47:05.376Z,97275.32
2018-08-20T11:48:41.610Z,97270.63
2018-08-20T11:50:20.432Z,97270.88
2018-08-20T11:51:56.598Z,97274.80
2018-08-20T11:53:39.056Z,97270.62
2018-08-20T11:55:18.969Z,97270.22
2018-08-20T11:56:59.536Z,97272.11
2018-08-20T11:58:37.412Z,97255.41
2018-08-20T12:00:18.551Z,97260.22
2018-08-20T12:01:57.465Z,97256.52
2018-08-20T12:03:34.255Z,97258.06
2018-08-20T12:06:54.931Z,97262.63
2018-08-20T12:08:34.822Z,97261.33
2018-08-20T12:10:13.907Z,97271.61
2018-08-20T12:11:51.279Z,97263.98
2018-08-20T12:13:31.346Z,97265.25
2018-08-20T12:15:10.545Z,97268.80
2018-08-20T12:16:49.645Z,97264.70
2018-08-20T12:18:26.035Z,97280.47
2018-08-20T12:20:08.697Z,97275.19
2018-08-20T12:21:47.813Z,97272.28
2018-08-20T12:23:24.679Z,97270.00
2018-08-20T12:25:06.510Z,97277.70
2018-08-20T12:26:42.304Z,97274.91
2018-08-20T12:28:22.682Z,97273.42
2018-08-20T12:30:09.155Z,97272.95
2018-08-20T12:31:46.341Z,97273.58
2018-08-20T12:33:22.620Z,97278.88
2018-08-20T12:34:58.805Z,97274.95
2018-08-20T12:36:36.780Z,97273.63
2018-08-20T12:38:13.536Z,97273.69
2018-08-20T12:39:54.543Z,97262.41
2018-08-20T12:41:37.729Z,97264.94
2018-08-20T12:43:15.608Z,97263.67
2018-08-20T12:44:52.255Z,97266.55
2018-08-20T12:46:30.055Z,97262.09
2018-08-20T12:48:08.154Z,97265.25
2018-08-20T12:49:44.542Z,97261.20
2018-08-20T12:51:21.676Z,97263.39
2018-08-20T12:52:58.755Z,97264.12
2018-08-20T12:54:36.369Z,97262.02
2018-08-20T12:56:20.340Z,97262.34
2018-08-20T12:57:57.987Z,97265.55
2018-08-20T12:59:34.247Z,97259.59
2018-08-20T13:01:12.725Z,97256.50
2018-08-20T13:02:49.420Z,97259.88
2018-08-20T13:04:28.518Z,97260.67
2018-08-20T13:06:05.237Z,97255.13
2018-08-20T13:07:43.162Z,97259.07
2018-08-20T13:09:18.736Z,97249.97
2018-08-20T13:10:54.322Z,97254.71
2018-08-20T13:12:33.144Z,97253.70
2018-08-20T13:14:16.373Z,97260.25
2018-08-20T13:15:54.966Z,97253.03
2018-08-20T13:17:30.822Z,97257.07
2018-08-20T13:19:12.421Z,97254.04
2018-08-20T13:20:51.182Z,97260.56
2018-08-20T13:22:29.356Z,97249.28
2018-08-20T13:24:05.682Z,97254.77
2018-08-20T13:25:43.501Z,97249.83
2018-08-20T13:27:19.352Z,97245.08
2018-08-20T13:28:55.781Z,97244.77
2018-08-20T13:30:33.227Z,97247.94
2018-08-20T13:32:09.481Z,97248.22
2018-08-20T13:33:45.143Z,97241.33
2018-08-20T13:35:22.682Z,97242.60
2018-08-20T13:37:00.816Z,97242.84
2018-08-20T13:38:36.158Z,97243.39
2018-08-20T13:40:11.874Z,97246.16
2018-08-20T13:41:48.079Z,97238.42
2018-08-20T13:43:25.065Z,97245.91
2018-08-20T13:45:02.856Z,97246.37
2018-08-20T13:46:39.885Z,97243.78
2018-08-20T13:48:21.329Z,97246.53
2018-08-20T13:50:04.187Z,97246.81
2018-08-20T13:51:40.209Z,97243.49
2018-08-20T13:53:20.337Z,97249.46
2018-08-20T13:54:55.827Z,97239.34
2018-08-20T13:56:34.462Z,97241.47
2018-08-20T13:58:21.692Z,97243.37
2018-08-20T14:00:05.125Z,97246.52
2018-08-20T14:01:45.299Z,97244.75
2018-08-20T14:05:23.292Z,97242.80
2018-08-20T14:07:07.228Z,97245.02
2018-08-20T14:08:49.833Z,97242.53
2018-08-20T14:10:29.524Z,97244.69
2018-08-20T14:12:09.326Z,97242.25
2018-08-20T14:13:50.367Z,97240.01
2018-08-20T14:15:25.995Z,97246.01
2018-08-20T14:17:02.997Z,97244.31
2018-08-20T14:18:38.600Z,97243.45
2018-08-20T14:20:21.855Z,97240.33
2018-08-20T14:22:02.802Z,97248.06
2018-08-20T14:23:39.771Z,97247.81
2018-08-20T14:25:46.667Z,97244.86
2018-08-20T14:27:26.353Z,97237.27
2018-08-20T14:29:04.515Z,97244.06
2018-08-20T14:30:44.330Z,97239.91
2018-08-20T14:32:21.558Z,97239.91
2018-08-20T14:34:03.685Z,97246.48
2018-08-20T14:35:40.648Z,97245.67
2018-08-20T14:37:18.433Z,97235.34
2018-08-20T14:38:56.435Z,97230.44
2018-08-20T14:40:53.418Z,97237.50
2018-08-20T14:42:34.826Z,97236.81
2018-08-20T14:44:15.152Z,97234.41
2018-08-20T14:45:56.578Z,97228.98
2018-08-20T14:47:34.139Z,97229.63
2018-08-20T14:49:10.529Z,97226.41
2018-08-20T14:50:47.870Z,97231.02
2018-08-20T14:52:26.043Z,97233.72
2018-08-20T14:54:02.924Z,97232.31
2018-08-20T14:55:43.103Z,97227.48
2018-08-20T14:57:23.203Z,97224.41
2018-08-20T14:58:59.605Z,97226.37
2018-08-20T15:00:38.559Z,97222.97
2018-08-20T15:02:17.422Z,97225.55
2018-08-20T15:03:53.792Z,97234.87
2018-08-20T15:05:32.636Z,97234.63
2018-08-20T15:07:16.836Z,97227.80
2018-08-20T15:08:57.704Z,97224.66
2018-08-20T15:10:35.713Z,97225.38
2018-08-20T15:12:13.606Z,97223.67
2018-08-20T15:13:58.305Z,97226.55
2018-08-20T15:15:37.452Z,97228.75
2018-08-20T15:17:15.401Z,97219.24
2018-08-20T15:18:52.629Z,97223.72
2018-08-20T15:20:30.374Z,97222.72
2018-08-20T15:22:10.570Z,97226.02
2018-08-20T15:23:51.146Z,97222.62
2018-08-20T15:25:35.277Z,97225.78
2018-08-20T15:27:17.267Z,97227.81
2018-08-20T15:28:56.611Z,97231.34
2018-08-20T15:30:36.165Z,97234.56
2018-08-20T15:32:32.388Z,97238.95
2018-08-20T15:34:21.246Z,97233.25
2018-08-20T15:36:06.225Z,97234.87
2018-08-20T15:37:49.134Z,97234.64
2018-08-20T15:39:28.076Z,97237.94
2018-08-20T15:41:08.590Z,97238.60
2018-08-20T15:42:49.800Z,97237.08
2018-08-20T15:44:34.576Z,97240.27
2018-08-20T15:48:17.417Z,97239.39
2018-08-20T15:49:55.759Z,97235.73
2018-08-20T15:51:40.682Z,97233.82
2018-08-20T15:53:24.482Z,97231.44
2018-08-20T15:55:13.701Z,97230.64
2018-08-20T15:57:10.503Z,97232.01
2018-08-20T15:58:48.309Z,97225.45
2018-08-20T16:00:27.681Z,97235.81
2018-08-20T16:02:09.650Z,97230.48
2018-08-20T16:03:45.748Z,97237.16
2018-08-20T16:05:27.811Z,97240.30
2018-08-20T16:07:05.242Z,97244.09
2018-08-20T16:08:48.979Z,97244.95
2018-08-20T16:10:25.621Z,97247.16
2018-08-20T16:12:05.676Z,97246.06
2018-08-20T16:13:41.730Z,97248.66
2018-08-20T16:15:19.196Z,97246.16
2018-08-20T16:16:55.952Z,97241.81
2018-08-20T16:18:36.157Z,97237.55
2018-08-20T16:20:16.856Z,97233.08
2018-08-20T16:22:08.703Z,97238.36
2018-08-20T16:23:54.442Z,97231.56
2018-08-20T16:25:39.174Z,97228.33
2018-08-20T16:27:21.888Z,97233.03
2018-08-20T16:29:03.652Z,97229.20
2018-08-20T16:30:44.779Z,97229.83
2018-08-20T16:32:22.940Z,97231.22
2018-08-20T16:34:00.525Z,97227.71
2018-08-20T16:35:41.226Z,97223.28
2018-08-20T16:37:18.424Z,97221.77
2018-08-20T16:40:41.313Z,97220.14
2018-08-20T16:42:19.248Z,97221.43
2018-08-20T16:44:02.954Z,97219.67
2018-08-20T16:45:40.314Z,97222.33
2018-08-20T16:47:30.558Z,97226.98
2018-08-20T16:49:26.442Z,97226.49
2018-08-20T16:51:05.069Z,97219.25
2018-08-20T16:52:47.158Z,97215.09
2018-08-20T16:54:35.696Z,97218.45
2018-08-20T16:56:28.080Z,97214.92
2018-08-20T16:58:15.555Z,97220.02
2018-08-20T16:59:55.100Z,97223.16
2018-08-20T17:01:35.986Z,97224.34
2018-08-20T17:03:23.266Z,97226.76
2018-08-20T17:05:09.676Z,97220.00
2018-08-20T17:07:04.686Z,97217.19
2018-08-20T17:08:47.100Z,97212.75
2018-08-20T17:13:59.519Z,97223.93
2018-08-20T17:15:47.646Z,97227.20
2018-08-20T17:17:31.284Z,97223.53
2018-08-20T17:19:14.754Z,97220.26
2018-08-20T17:20:56.265Z,97226.45
2018-08-20T17:22:37.839Z,97226.84
2018-08-20T17:24:17.740Z,97226.80
2018-08-20T17:25:58.363Z,97223.62
2018-08-20T17:27:33.979Z,97223.12
2018-08-20T17:29:13.385Z,97227.02
2018-08-20T17:30:56.720Z,97230.31
2018-08-20T17:32:39.854Z,97227.78
2018-08-20T17:34:18.492Z,97230.06
2018-08-20T17:35:57.633Z,97234.09
2018-08-20T17:37:38.303Z,97237.13
2018-08-20T17:39:16.133Z,97232.75
2018-08-20T17:40:55.330Z,97233.02
2018-08-20T17:42:33.866Z,97233.73
2018-08-20T17:44:22.081Z,97230.23
2018-08-20T17:46:05.031Z,97220.75
2018-08-20T17:47:46.313Z,97224.11
2018-08-20T17:49:31.061Z,97222.23
2018-08-20T17:51:12.604Z,97225.27
2018-08-20T17:54:46.728Z,97224.11
2018-08-20T17:56:27.547Z,97230.06
2018-08-20T17:58:09.205Z,97223.47
2018-08-20T17:59:46.315Z,97226.11
2018-08-20T18:01:30.173Z,97228.83
2018-08-20T18:03:12.383Z,97225.44
2018-08-20T18:04:53.005Z,97220.83
2018-08-20T18:06:48.511Z,97228.52
2018-08-20T18:08:27.219Z,97230.09
2018-08-20T18:10:08.519Z,97230.48
2018-08-20T18:11:58.716Z,97233.27
2018-08-20T18:13:52.159Z,97233.52
2018-08-20T18:15:44.156Z,97231.19
2018-08-20T18:17:21.621Z,97236.73
2018-08-20T18:19:00.433Z,97235.34
2018-08-20T18:20:42.103Z,97236.59
2018-08-20T18:22:31.188Z,97234.23
2018-08-20T18:24:10.736Z,97236.59
2018-08-20T18:25:49.874Z,97231.03
2018-08-20T18:27:42.490Z,97229.80
2018-08-20T18:29:23.260Z,97229.02
2018-08-20T18:31:12.665Z,97233.80
2018-08-20T18:32:51.957Z,97234.31
2018-08-20T18:34:28.895Z,97237.49
2018-08-20T18:36:10.142Z,97242.77
2018-08-20T18:37:52.466Z,97242.98
2018-08-20T18:39:31.973Z,97243.86
2018-08-20T18:41:09.770Z,97240.90
2018-08-20T18:42:49.834Z,97246.31
2018-08-20T18:44:26.236Z,97249.19
2018-08-20T18:46:02.137Z,97254.58
2018-08-20T18:47:43.365Z,97255.06
2018-08-20T18:49:20.101Z,97254.44
2018-08-20T18:50:58.894Z,97262.63
2018-08-20T18:52:38.055Z,97269.28
2018-08-20T18:54:14.949Z,97268.03
2018-08-20T18:56:02.522Z,97267.00
2018-08-20T18:57:39.180Z,97267.76
2018-08-20T18:59:17.607Z,97272.41
2018-08-20T19:00:56.550Z,97272.41
2018-08-20T19:03:00.624Z,97272.41
2018-08-20T19:04:46.002Z,97270.64
2018-08-20T19:06:37.117Z,97266.06
2018-08-20T19:08:20.581Z,97274.11
2018-08-20T19:09:56.326Z,97275.84
2018-08-20T19:11:36.619Z,97275.22
2018-08-20T19:13:14.341Z,97282.36
2018-08-20T19:14:54.788Z,97282.25
2018-08-20T19:16:35.302Z,97284.89
2018-08-20T19:18:20.754Z,97281.98
2018-08-20T19:19:57.376Z,97282.81
2018-08-20T19:21:39.843Z,97283.44
2018-08-20T19:23:19.970Z,97280.39
2018-08-20T19:24:58.056Z,97284.83
2018-08-20T19:26:36.744Z,97284.55
2018-08-20T19:28:24.660Z,97282.81